sensor_id;sensor_type;location;lat;lon;timestamp;temperature;humidity
9437;DHT22;4757;59.334;18.034;2023-03-12T00:01:28;-4.40;99.90
9437;DHT22;4757;59.334;18.034;2023-03-12T00:03:56;-4.40;99.90
9437;DHT22;4757;59.334;18.034;2023-03-12T00:06:23;-4.40;99.90
9437;DHT22;4757;59.334;18.034;2023-03-12T00:08:50;-4.40;99.90
9437;DHT22;4757;59.334;18.034;2023-03-12T00:11:20;-4.50;99.90
9437;DHT22;4757;59.334;18.034;2023-03-12T00:13:49;-4.40;99.90
9437;DHT22;4757;59.334;18.034;2023-03-12T00:16:16;-4.40;99.90
9437;DHT22;4757;59.334;18.034;2023-03-12T00:18:47;-4.40;99.90
9437;DHT22;4757;59.334;18.034;2023-03-12T00:21:14;-4.50;99.90
9437;DHT22;4757;59.334;18.034;2023-03-12T00:23:41;-4.50;99.90
9437;DHT22;4757;59.334;18.034;2023-03-12T00:26:11;-4.50;99.90
9437;DHT22;4757;59.334;18.034;2023-03-12T00:28:44;-4.50;99.90
9437;DHT22;4757;59.334;18.034;2023-03-12T00:31:27;-4.50;99.90
9437;DHT22;4757;59.334;18.034;2023-03-12T00:33:55;-4.40;99.90
9437;DHT22;4757;59.334;18.034;2023-03-12T00:36:25;-4.40;99.90
9437;DHT22;4757;59.334;18.034;2023-03-12T00:38:54;-4.40;99.90
9437;DHT22;4757;59.334;18.034;2023-03-12T00:41:22;-4.40;99.90
9437;DHT22;4757;59.334;18.034;2023-03-12T00:43:50;-4.40;99.90
9437;DHT22;4757;59.334;18.034;2023-03-12T00:46:18;-4.40;99.90
9437;DHT22;4757;59.334;18.034;2023-03-12T00:48:46;-4.40;99.90
9437;DHT22;4757;59.334;18.034;2023-03-12T00:51:13;-4.40;99.90
9437;DHT22;4757;59.334;18.034;2023-03-12T00:53:41;-4.40;99.90
9437;DHT22;4757;59.334;18.034;2023-03-12T00:56:08;-4.40;99.90
9437;DHT22;4757;59.334;18.034;2023-03-12T00:58:35;-4.40;99.90
9437;DHT22;4757;59.334;18.034;2023-03-12T01:01:03;-4.40;99.90
9437;DHT22;4757;59.334;18.034;2023-03-12T01:03:30;-4.40;99.90
9437;DHT22;4757;59.334;18.034;2023-03-12T01:05:57;-4.40;99.90
9437;DHT22;4757;59.334;18.034;2023-03-12T01:08:25;-4.40;99.90
9437;DHT22;4757;59.334;18.034;2023-03-12T01:10:52;-4.40;99.90
9437;DHT22;4757;59.334;18.034;2023-03-12T01:13:19;-4.40;99.90
9437;DHT22;4757;59.334;18.034;2023-03-12T01:15:46;-4.50;99.90
9437;DHT22;4757;59.334;18.034;2023-03-12T01:18:13;-4.50;99.90
9437;DHT22;4757;59.334;18.034;2023-03-12T01:20:41;-4.50;99.90
9437;DHT22;4757;59.334;18.034;2023-03-12T01:23:09;-4.50;99.90
9437;DHT22;4757;59.334;18.034;2023-03-12T01:25:36;-4.50;99.90
9437;DHT22;4757;59.334;18.034;2023-03-12T01:28:03;-4.60;99.90
9437;DHT22;4757;59.334;18.034;2023-03-12T01:30:30;-4.60;99.90
9437;DHT22;4757;59.334;18.034;2023-03-12T01:32:57;-4.60;99.90
9437;DHT22;4757;59.334;18.034;2023-03-12T01:35:25;-4.70;99.90
9437;DHT22;4757;59.334;18.034;2023-03-12T01:37:52;-4.70;99.90
9437;DHT22;4757;59.334;18.034;2023-03-12T01:40:22;-4.70;99.90
9437;DHT22;4757;59.334;18.034;2023-03-12T01:42:56;-4.80;99.90
9437;DHT22;4757;59.334;18.034;2023-03-12T01:45:50;-4.70;99.90
9437;DHT22;4757;59.334;18.034;2023-03-12T01:48:23;-4.70;99.90
9437;DHT22;4757;59.334;18.034;2023-03-12T01:50:51;-4.70;99.90
9437;DHT22;4757;59.334;18.034;2023-03-12T01:53:18;-4.80;99.90
9437;DHT22;4757;59.334;18.034;2023-03-12T01:55:45;-4.70;99.90
9437;DHT22;4757;59.334;18.034;2023-03-12T01:58:12;-4.70;99.90
9437;DHT22;4757;59.334;18.034;2023-03-12T02:00:39;-4.70;99.90
9437;DHT22;4757;59.334;18.034;2023-03-12T02:03:08;-4.70;99.90
9437;DHT22;4757;59.334;18.034;2023-03-12T02:05:50;-4.80;99.90
9437;DHT22;4757;59.334;18.034;2023-03-12T02:08:19;-4.70;99.90
9437;DHT22;4757;59.334;18.034;2023-03-12T02:10:46;-4.80;99.90
9437;DHT22;4757;59.334;18.034;2023-03-12T02:13:13;-4.80;99.90
9437;DHT22;4757;59.334;18.034;2023-03-12T02:15:40;-4.80;99.90
9437;DHT22;4757;59.334;18.034;2023-03-12T02:18:10;-4.70;99.90
9437;DHT22;4757;59.334;18.034;2023-03-12T02:21:43;-4.80;99.90
9437;DHT22;4757;59.334;18.034;2023-03-12T02:26:30;-4.70;99.90
9437;DHT22;4757;59.334;18.034;2023-03-12T02:28:59;-4.80;99.90
9437;DHT22;4757;59.334;18.034;2023-03-12T02:31:30;-4.80;99.90
9437;DHT22;4757;59.334;18.034;2023-03-12T02:33:59;-4.80;99.90
9437;DHT22;4757;59.334;18.034;2023-03-12T02:36:26;-4.90;99.90
9437;DHT22;4757;59.334;18.034;2023-03-12T02:38:54;-4.90;99.90
9437;DHT22;4757;59.334;18.034;2023-03-12T02:41:35;-4.90;99.90
9437;DHT22;4757;59.334;18.034;2023-03-12T02:46:34;-5.00;99.90
9437;DHT22;4757;59.334;18.034;2023-03-12T02:49:02;-5.10;99.90
9437;DHT22;4757;59.334;18.034;2023-03-12T02:51:29;-5.10;99.90
9437;DHT22;4757;59.334;18.034;2023-03-12T02:53:56;-5.10;99.90
9437;DHT22;4757;59.334;18.034;2023-03-12T02:56:26;-5.10;99.90
9437;DHT22;4757;59.334;18.034;2023-03-12T02:58:53;-5.20;99.90
9437;DHT22;4757;59.334;18.034;2023-03-12T03:01:20;-5.30;99.90
9437;DHT22;4757;59.334;18.034;2023-03-12T03:03:48;-5.20;99.90
9437;DHT22;4757;59.334;18.034;2023-03-12T03:06:16;-5.30;99.90
9437;DHT22;4757;59.334;18.034;2023-03-12T03:08:43;-5.30;99.90
9437;DHT22;4757;59.334;18.034;2023-03-12T03:11:10;-5.30;99.90
9437;DHT22;4757;59.334;18.034;2023-03-12T03:13:38;-5.30;99.90
9437;DHT22;4757;59.334;18.034;2023-03-12T03:16:05;-5.30;99.90
9437;DHT22;4757;59.334;18.034;2023-03-12T03:18:32;-5.30;99.90
9437;DHT22;4757;59.334;18.034;2023-03-12T03:21:02;-5.30;99.90
9437;DHT22;4757;59.334;18.034;2023-03-12T03:23:30;-5.30;99.90
9437;DHT22;4757;59.334;18.034;2023-03-12T03:25:58;-5.30;99.90
9437;DHT22;4757;59.334;18.034;2023-03-12T03:28:26;-5.30;99.90
9437;DHT22;4757;59.334;18.034;2023-03-12T03:30:55;-5.30;99.90
9437;DHT22;4757;59.334;18.034;2023-03-12T03:33:33;-5.40;99.90
9437;DHT22;4757;59.334;18.034;2023-03-12T03:36:02;-5.40;99.90
9437;DHT22;4757;59.334;18.034;2023-03-12T03:38:30;-5.40;99.90
9437;DHT22;4757;59.334;18.034;2023-03-12T03:40:58;-5.40;99.90
9437;DHT22;4757;59.334;18.034;2023-03-12T03:43:26;-5.40;99.90
9437;DHT22;4757;59.334;18.034;2023-03-12T03:46:01;-5.40;99.90
9437;DHT22;4757;59.334;18.034;2023-03-12T03:48:29;-5.40;99.90
9437;DHT22;4757;59.334;18.034;2023-03-12T03:51:04;-5.30;99.90
9437;DHT22;4757;59.334;18.034;2023-03-12T03:53:32;-5.40;99.90
9437;DHT22;4757;59.334;18.034;2023-03-12T03:56:08;-5.40;99.90
9437;DHT22;4757;59.334;18.034;2023-03-12T03:58:36;-5.40;99.90
9437;DHT22;4757;59.334;18.034;2023-03-12T04:01:03;-5.40;99.90
9437;DHT22;4757;59.334;18.034;2023-03-12T04:03:32;-5.40;99.90
9437;DHT22;4757;59.334;18.034;2023-03-12T04:06:01;-5.40;99.90
9437;DHT22;4757;59.334;18.034;2023-03-12T04:08:29;-5.40;99.90
9437;DHT22;4757;59.334;18.034;2023-03-12T04:10:56;-5.30;99.90
9437;DHT22;4757;59.334;18.034;2023-03-12T04:13:23;-5.40;99.90
9437;DHT22;4757;59.334;18.034;2023-03-12T04:15:56;-5.30;99.90
9437;DHT22;4757;59.334;18.034;2023-03-12T04:18:38;-5.40;99.90
9437;DHT22;4757;59.334;18.034;2023-03-12T04:21:08;-5.40;99.90
9437;DHT22;4757;59.334;18.034;2023-03-12T04:23:35;-5.40;99.90
9437;DHT22;4757;59.334;18.034;2023-03-12T04:26:04;-5.50;99.90
9437;DHT22;4757;59.334;18.034;2023-03-12T04:28:32;-5.40;99.90
9437;DHT22;4757;59.334;18.034;2023-03-12T04:31:01;-5.40;99.90
9437;DHT22;4757;59.334;18.034;2023-03-12T04:33:31;-5.40;99.90
9437;DHT22;4757;59.334;18.034;2023-03-12T04:35:59;-5.50;99.90
9437;DHT22;4757;59.334;18.034;2023-03-12T04:38:26;-5.50;99.90
9437;DHT22;4757;59.334;18.034;2023-03-12T04:41:02;-5.40;99.90
9437;DHT22;4757;59.334;18.034;2023-03-12T04:43:31;-5.40;99.90
9437;DHT22;4757;59.334;18.034;2023-03-12T04:45:58;-5.50;99.90
9437;DHT22;4757;59.334;18.034;2023-03-12T04:48:26;-5.40;99.90
9437;DHT22;4757;59.334;18.034;2023-03-12T04:50:53;-5.50;99.90
9437;DHT22;4757;59.334;18.034;2023-03-12T04:53:21;-5.40;99.90
9437;DHT22;4757;59.334;18.034;2023-03-12T04:55:57;-5.50;99.90
9437;DHT22;4757;59.334;18.034;2023-03-12T04:58:25;-5.50;99.90
9437;DHT22;4757;59.334;18.034;2023-03-12T05:00:52;-5.50;99.90
9437;DHT22;4757;59.334;18.034;2023-03-12T05:03:19;-5.50;99.90
9437;DHT22;4757;59.334;18.034;2023-03-12T05:05:46;-5.50;99.90
9437;DHT22;4757;59.334;18.034;2023-03-12T05:08:13;-5.50;99.90
9437;DHT22;4757;59.334;18.034;2023-03-12T05:10:40;-5.50;99.90
9437;DHT22;4757;59.334;18.034;2023-03-12T05:13:15;-5.50;99.90
9437;DHT22;4757;59.334;18.034;2023-03-12T05:15:42;-5.40;99.90
9437;DHT22;4757;59.334;18.034;2023-03-12T05:18:10;-5.40;99.90
9437;DHT22;4757;59.334;18.034;2023-03-12T05:20:37;-5.30;99.90
9437;DHT22;4757;59.334;18.034;2023-03-12T05:23:04;-5.30;99.90
9437;DHT22;4757;59.334;18.034;2023-03-12T05:25:31;-5.30;99.90
9437;DHT22;4757;59.334;18.034;2023-03-12T05:27:58;-5.20;99.90
9437;DHT22;4757;59.334;18.034;2023-03-12T05:30:25;-5.30;99.90
9437;DHT22;4757;59.334;18.034;2023-03-12T05:32:52;-5.30;99.90
9437;DHT22;4757;59.334;18.034;2023-03-12T05:35:19;-5.20;99.90
9437;DHT22;4757;59.334;18.034;2023-03-12T05:37:46;-5.20;99.90
9437;DHT22;4757;59.334;18.034;2023-03-12T05:40:13;-5.10;99.90
9437;DHT22;4757;59.334;18.034;2023-03-12T05:42:40;-5.10;99.90
9437;DHT22;4757;59.334;18.034;2023-03-12T05:45:08;-5.10;99.90
9437;DHT22;4757;59.334;18.034;2023-03-12T05:47:35;-5.00;99.90
9437;DHT22;4757;59.334;18.034;2023-03-12T05:50:02;-4.90;99.90
9437;DHT22;4757;59.334;18.034;2023-03-12T05:52:29;-4.90;99.90
9437;DHT22;4757;59.334;18.034;2023-03-12T05:54:56;-4.90;99.90
9437;DHT22;4757;59.334;18.034;2023-03-12T05:57:23;-4.80;99.90
9437;DHT22;4757;59.334;18.034;2023-03-12T05:59:50;-4.80;99.90
9437;DHT22;4757;59.334;18.034;2023-03-12T06:02:17;-4.40;99.90
9437;DHT22;4757;59.334;18.034;2023-03-12T06:04:45;-3.20;99.90
9437;DHT22;4757;59.334;18.034;2023-03-12T06:07:12;-3.10;99.90
9437;DHT22;4757;59.334;18.034;2023-03-12T06:09:39;-3.10;99.90
9437;DHT22;4757;59.334;18.034;2023-03-12T06:12:07;-2.50;99.90
9437;DHT22;4757;59.334;18.034;2023-03-12T06:14:34;-2.90;99.90
9437;DHT22;4757;59.334;18.034;2023-03-12T06:17:01;-3.40;99.90
9437;DHT22;4757;59.334;18.034;2023-03-12T06:19:28;-3.90;99.90
9437;DHT22;4757;59.334;18.034;2023-03-12T06:21:55;-4.00;99.90
9437;DHT22;4757;59.334;18.034;2023-03-12T06:24:24;-4.20;99.90
9437;DHT22;4757;59.334;18.034;2023-03-12T06:26:51;-4.10;99.90
9437;DHT22;4757;59.334;18.034;2023-03-12T06:29:18;-4.20;99.90
9437;DHT22;4757;59.334;18.034;2023-03-12T06:31:45;-4.20;99.90
9437;DHT22;4757;59.334;18.034;2023-03-12T06:34:14;-4.10;99.90
9437;DHT22;4757;59.334;18.034;2023-03-12T06:36:42;-4.20;99.90
9437;DHT22;4757;59.334;18.034;2023-03-12T06:39:10;-4.30;99.90
9437;DHT22;4757;59.334;18.034;2023-03-12T06:41:37;-4.20;99.90
9437;DHT22;4757;59.334;18.034;2023-03-12T06:44:04;-4.10;99.90
9437;DHT22;4757;59.334;18.034;2023-03-12T06:46:32;-4.10;99.90
9437;DHT22;4757;59.334;18.034;2023-03-12T06:48:59;-3.90;99.90
9437;DHT22;4757;59.334;18.034;2023-03-12T06:51:29;-3.70;99.90
9437;DHT22;4757;59.334;18.034;2023-03-12T06:53:56;-3.70;99.90
9437;DHT22;4757;59.334;18.034;2023-03-12T06:56:23;-3.80;99.90
9437;DHT22;4757;59.334;18.034;2023-03-12T06:58:50;-3.80;99.90
9437;DHT22;4757;59.334;18.034;2023-03-12T07:01:17;-3.80;99.90
9437;DHT22;4757;59.334;18.034;2023-03-12T07:03:44;-3.80;99.90
9437;DHT22;4757;59.334;18.034;2023-03-12T07:06:15;-3.70;99.90
9437;DHT22;4757;59.334;18.034;2023-03-12T07:08:42;-3.80;99.90
9437;DHT22;4757;59.334;18.034;2023-03-12T07:11:10;-3.80;99.90
9437;DHT22;4757;59.334;18.034;2023-03-12T07:13:38;-3.70;99.90
9437;DHT22;4757;59.334;18.034;2023-03-12T07:16:06;-3.60;99.90
9437;DHT22;4757;59.334;18.034;2023-03-12T07:18:36;-3.50;99.90
9437;DHT22;4757;59.334;18.034;2023-03-12T07:21:06;-3.40;99.90
9437;DHT22;4757;59.334;18.034;2023-03-12T07:23:34;-2.90;99.90
9437;DHT22;4757;59.334;18.034;2023-03-12T07:26:03;-2.60;99.90
9437;DHT22;4757;59.334;18.034;2023-03-12T07:28:31;-2.10;99.90
9437;DHT22;4757;59.334;18.034;2023-03-12T07:31:04;-1.50;99.90
9437;DHT22;4757;59.334;18.034;2023-03-12T07:33:31;-1.00;99.90
9437;DHT22;4757;59.334;18.034;2023-03-12T07:35:59;-1.20;99.90
9437;DHT22;4757;59.334;18.034;2023-03-12T07:38:30;-0.70;99.90
9437;DHT22;4757;59.334;18.034;2023-03-12T07:40:57;-0.70;99.90
9437;DHT22;4757;59.334;18.034;2023-03-12T07:43:26;-0.20;99.90
9437;DHT22;4757;59.334;18.034;2023-03-12T07:45:58;0.30;99.90
9437;DHT22;4757;59.334;18.034;2023-03-12T07:48:25;0.20;99.90
9437;DHT22;4757;59.334;18.034;2023-03-12T07:50:53;-0.20;99.90
9437;DHT22;4757;59.334;18.034;2023-03-12T07:53:20;-1.10;99.90
9437;DHT22;4757;59.334;18.034;2023-03-12T07:55:50;-1.20;99.90
9437;DHT22;4757;59.334;18.034;2023-03-12T07:58:18;-1.50;99.90
9437;DHT22;4757;59.334;18.034;2023-03-12T08:00:46;-1.50;99.90
9437;DHT22;4757;59.334;18.034;2023-03-12T08:03:13;-1.50;99.90
9437;DHT22;4757;59.334;18.034;2023-03-12T08:05:41;-1.50;99.90
9437;DHT22;4757;59.334;18.034;2023-03-12T08:08:09;-1.80;99.90
9437;DHT22;4757;59.334;18.034;2023-03-12T08:10:36;-1.90;99.90
9437;DHT22;4757;59.334;18.034;2023-03-12T08:13:04;-2.00;99.90
9437;DHT22;4757;59.334;18.034;2023-03-12T08:15:31;-2.00;99.90
9437;DHT22;4757;59.334;18.034;2023-03-12T08:17:59;-1.90;99.90
9437;DHT22;4757;59.334;18.034;2023-03-12T08:20:27;-1.90;99.90
9437;DHT22;4757;59.334;18.034;2023-03-12T08:22:54;-1.70;99.90
9437;DHT22;4757;59.334;18.034;2023-03-12T08:25:22;-1.70;99.90
9437;DHT22;4757;59.334;18.034;2023-03-12T08:27:50;-1.70;99.90
9437;DHT22;4757;59.334;18.034;2023-03-12T08:30:17;-1.60;99.90
9437;DHT22;4757;59.334;18.034;2023-03-12T08:32:45;-1.60;99.90
9437;DHT22;4757;59.334;18.034;2023-03-12T08:35:12;-1.40;99.90
9437;DHT22;4757;59.334;18.034;2023-03-12T08:37:39;-1.50;99.90
9437;DHT22;4757;59.334;18.034;2023-03-12T08:40:07;-1.50;99.90
9437;DHT22;4757;59.334;18.034;2023-03-12T08:42:40;-1.70;99.90
9437;DHT22;4757;59.334;18.034;2023-03-12T08:45:11;-1.90;99.90
9437;DHT22;4757;59.334;18.034;2023-03-12T08:47:38;-1.90;99.90
9437;DHT22;4757;59.334;18.034;2023-03-12T08:50:09;-1.80;99.90
9437;DHT22;4757;59.334;18.034;2023-03-12T08:52:37;-1.90;99.90
9437;DHT22;4757;59.334;18.034;2023-03-12T08:55:05;-1.90;99.90
9437;DHT22;4757;59.334;18.034;2023-03-12T08:57:32;-2.00;99.90
9437;DHT22;4757;59.334;18.034;2023-03-12T08:59:59;-2.10;99.90
9437;DHT22;4757;59.334;18.034;2023-03-12T09:02:26;-2.10;99.90
9437;DHT22;4757;59.334;18.034;2023-03-12T09:04:54;-2.10;99.90
9437;DHT22;4757;59.334;18.034;2023-03-12T09:07:21;-2.10;99.90
9437;DHT22;4757;59.334;18.034;2023-03-12T09:09:48;-2.10;99.90
9437;DHT22;4757;59.334;18.034;2023-03-12T09:12:15;-2.00;99.90
9437;DHT22;4757;59.334;18.034;2023-03-12T09:14:43;-2.00;99.90
9437;DHT22;4757;59.334;18.034;2023-03-12T09:17:31;-2.00;99.90
9437;DHT22;4757;59.334;18.034;2023-03-12T09:19:58;-2.00;99.90
9437;DHT22;4757;59.334;18.034;2023-03-12T09:22:29;-1.90;99.90
9437;DHT22;4757;59.334;18.034;2023-03-12T09:24:56;-1.90;99.90
9437;DHT22;4757;59.334;18.034;2023-03-12T09:27:23;-2.00;99.90
9437;DHT22;4757;59.334;18.034;2023-03-12T09:29:52;-1.90;99.90
9437;DHT22;4757;59.334;18.034;2023-03-12T09:32:26;-1.80;99.90
9437;DHT22;4757;59.334;18.034;2023-03-12T09:34:53;-1.70;99.90
9437;DHT22;4757;59.334;18.034;2023-03-12T09:37:20;-1.70;99.90
9437;DHT22;4757;59.334;18.034;2023-03-12T09:39:50;-1.70;99.90
9437;DHT22;4757;59.334;18.034;2023-03-12T09:42:54;-1.70;99.90
9437;DHT22;4757;59.334;18.034;2023-03-12T09:45:26;-1.60;99.90
9437;DHT22;4757;59.334;18.034;2023-03-12T09:47:59;-1.60;99.90
9437;DHT22;4757;59.334;18.034;2023-03-12T09:50:36;-1.30;99.90
9437;DHT22;4757;59.334;18.034;2023-03-12T09:55:59;-1.10;99.90
9437;DHT22;4757;59.334;18.034;2023-03-12T09:58:33;-1.10;99.90
9437;DHT22;4757;59.334;18.034;2023-03-12T10:03:55;-1.10;99.90
9437;DHT22;4757;59.334;18.034;2023-03-12T10:09:19;-1.40;99.90
9437;DHT22;4757;59.334;18.034;2023-03-12T10:11:54;-1.30;99.90
9437;DHT22;4757;59.334;18.034;2023-03-12T10:20:25;-1.10;99.90
9437;DHT22;4757;59.334;18.034;2023-03-12T10:26:04;-1.00;99.90
9437;DHT22;4757;59.334;18.034;2023-03-12T10:28:36;-0.90;99.90
9437;DHT22;4757;59.334;18.034;2023-03-12T10:31:18;-0.90;99.90
9437;DHT22;4757;59.334;18.034;2023-03-12T10:33:58;-0.90;99.90
9437;DHT22;4757;59.334;18.034;2023-03-12T10:36:33;-1.00;99.90
9437;DHT22;4757;59.334;18.034;2023-03-12T10:39:03;-1.00;99.90
9437;DHT22;4757;59.334;18.034;2023-03-12T10:41:31;-1.00;99.90
9437;DHT22;4757;59.334;18.034;2023-03-12T10:44:07;-1.00;99.90
9437;DHT22;4757;59.334;18.034;2023-03-12T10:46:56;-1.00;99.90
9437;DHT22;4757;59.334;18.034;2023-03-12T10:49:28;-1.00;99.90
9437;DHT22;4757;59.334;18.034;2023-03-12T10:54:37;-1.00;99.90
9437;DHT22;4757;59.334;18.034;2023-03-12T10:57:11;-0.90;99.90
9437;DHT22;4757;59.334;18.034;2023-03-12T10:59:41;-0.80;99.90
9437;DHT22;4757;59.334;18.034;2023-03-12T11:02:34;-0.80;99.90
9437;DHT22;4757;59.334;18.034;2023-03-12T11:05:19;-0.70;99.90
9437;DHT22;4757;59.334;18.034;2023-03-12T11:07:47;-0.60;99.90
9437;DHT22;4757;59.334;18.034;2023-03-12T11:13:27;-0.80;99.90
9437;DHT22;4757;59.334;18.034;2023-03-12T11:15:59;-0.80;99.90
9437;DHT22;4757;59.334;18.034;2023-03-12T11:18:36;-0.90;99.90
9437;DHT22;4757;59.334;18.034;2023-03-12T11:23:45;-0.90;99.90
9437;DHT22;4757;59.334;18.034;2023-03-12T11:26:19;-1.00;99.90
9437;DHT22;4757;59.334;18.034;2023-03-12T11:28:53;-1.00;99.90
9437;DHT22;4757;59.334;18.034;2023-03-12T11:31:27;-1.00;99.90
9437;DHT22;4757;59.334;18.034;2023-03-12T11:34:13;-0.80;99.90
9437;DHT22;4757;59.334;18.034;2023-03-12T11:36:55;-0.80;99.90
9437;DHT22;4757;59.334;18.034;2023-03-12T11:45:59;-0.70;99.90
9437;DHT22;4757;59.334;18.034;2023-03-12T11:57:13;-0.60;99.90
9437;DHT22;4757;59.334;18.034;2023-03-12T12:00:17;-0.60;99.90
9437;DHT22;4757;59.334;18.034;2023-03-12T12:19:59;-0.10;99.90
9437;DHT22;4757;59.334;18.034;2023-03-12T12:23:02;-0.20;99.90
9437;DHT22;4757;59.334;18.034;2023-03-12T12:36:44;0.10;99.90
9437;DHT22;4757;59.334;18.034;2023-03-12T12:41:58;0.30;99.90
9437;DHT22;4757;59.334;18.034;2023-03-12T12:44:50;0.30;99.90
9437;DHT22;4757;59.334;18.034;2023-03-12T12:47:30;0.60;99.90
9437;DHT22;4757;59.334;18.034;2023-03-12T12:49:59;0.90;99.90
9437;DHT22;4757;59.334;18.034;2023-03-12T12:52:27;2.00;99.90
9437;DHT22;4757;59.334;18.034;2023-03-12T12:55:13;2.50;99.90
9437;DHT22;4757;59.334;18.034;2023-03-12T12:58:25;3.20;99.90
9437;DHT22;4757;59.334;18.034;2023-03-12T13:00:54;3.50;99.90
9437;DHT22;4757;59.334;18.034;2023-03-12T13:03:25;3.60;99.90
9437;DHT22;4757;59.334;18.034;2023-03-12T13:06:01;3.60;99.90
9437;DHT22;4757;59.334;18.034;2023-03-12T13:14:11;4.20;99.90
9437;DHT22;4757;59.334;18.034;2023-03-12T13:16:44;4.10;99.90
9437;DHT22;4757;59.334;18.034;2023-03-12T13:24:32;4.50;99.90
9437;DHT22;4757;59.334;18.034;2023-03-12T13:29:44;4.00;99.90
9437;DHT22;4757;59.334;18.034;2023-03-12T13:45:31;1.60;99.90
9437;DHT22;4757;59.334;18.034;2023-03-12T13:48:00;1.60;99.90
9437;DHT22;4757;59.334;18.034;2023-03-12T13:50:31;1.50;99.90
9437;DHT22;4757;59.334;18.034;2023-03-12T13:53:07;1.40;99.90
9437;DHT22;4757;59.334;18.034;2023-03-12T13:55:42;1.20;99.90
9437;DHT22;4757;59.334;18.034;2023-03-12T13:58:16;1.10;99.90
9437;DHT22;4757;59.334;18.034;2023-03-12T14:01:02;1.00;99.90
9437;DHT22;4757;59.334;18.034;2023-03-12T14:03:38;1.00;99.90
9437;DHT22;4757;59.334;18.034;2023-03-12T14:06:16;1.00;99.90
9437;DHT22;4757;59.334;18.034;2023-03-12T14:17:26;0.90;99.90
9437;DHT22;4757;59.334;18.034;2023-03-12T14:20:08;0.80;99.90
9437;DHT22;4757;59.334;18.034;2023-03-12T14:22:41;0.80;99.90
9437;DHT22;4757;59.334;18.034;2023-03-12T14:25:47;0.80;99.90
9437;DHT22;4757;59.334;18.034;2023-03-12T14:28:31;0.90;99.90
9437;DHT22;4757;59.334;18.034;2023-03-12T14:31:13;1.00;99.90
9437;DHT22;4757;59.334;18.034;2023-03-12T14:33:58;1.00;99.90
9437;DHT22;4757;59.334;18.034;2023-03-12T14:39:45;0.90;99.90
9437;DHT22;4757;59.334;18.034;2023-03-12T14:42:47;0.90;99.90
9437;DHT22;4757;59.334;18.034;2023-03-12T14:45:28;0.90;99.90
9437;DHT22;4757;59.334;18.034;2023-03-12T14:48:13;0.90;99.90
9437;DHT22;4757;59.334;18.034;2023-03-12T14:54:21;0.90;99.90
9437;DHT22;4757;59.334;18.034;2023-03-12T14:57:32;0.90;99.90
9437;DHT22;4757;59.334;18.034;2023-03-12T15:00:35;0.90;99.90
9437;DHT22;4757;59.334;18.034;2023-03-12T15:03:13;0.90;99.90
9437;DHT22;4757;59.334;18.034;2023-03-12T15:05:56;0.90;99.90
9437;DHT22;4757;59.334;18.034;2023-03-12T15:08:43;0.90;99.90
9437;DHT22;4757;59.334;18.034;2023-03-12T15:11:19;0.90;99.90
9437;DHT22;4757;59.334;18.034;2023-03-12T15:13:48;0.90;99.90
9437;DHT22;4757;59.334;18.034;2023-03-12T15:16:19;0.90;99.90
9437;DHT22;4757;59.334;18.034;2023-03-12T15:18:48;0.90;99.90
9437;DHT22;4757;59.334;18.034;2023-03-12T15:21:16;0.90;99.90
9437;DHT22;4757;59.334;18.034;2023-03-12T15:23:48;0.80;99.90
9437;DHT22;4757;59.334;18.034;2023-03-12T15:26:43;0.90;99.90
9437;DHT22;4757;59.334;18.034;2023-03-12T15:29:39;0.90;99.90
9437;DHT22;4757;59.334;18.034;2023-03-12T15:39:24;0.70;99.90
9437;DHT22;4757;59.334;18.034;2023-03-12T15:41:55;0.70;99.90
9437;DHT22;4757;59.334;18.034;2023-03-12T15:44:55;0.70;99.90
9437;DHT22;4757;59.334;18.034;2023-03-12T15:47:38;0.70;99.90
9437;DHT22;4757;59.334;18.034;2023-03-12T15:50:40;0.70;99.90
9437;DHT22;4757;59.334;18.034;2023-03-12T15:53:46;0.60;99.90
9437;DHT22;4757;59.334;18.034;2023-03-12T15:56:30;0.70;99.90
9437;DHT22;4757;59.334;18.034;2023-03-12T16:01:48;0.60;99.90
9437;DHT22;4757;59.334;18.034;2023-03-12T16:04:26;0.50;99.90
9437;DHT22;4757;59.334;18.034;2023-03-12T16:07:12;0.50;99.90
9437;DHT22;4757;59.334;18.034;2023-03-12T16:09:54;0.40;99.90
9437;DHT22;4757;59.334;18.034;2023-03-12T16:12:48;0.40;99.90
9437;DHT22;4757;59.334;18.034;2023-03-12T16:16:12;0.40;99.90
9437;DHT22;4757;59.334;18.034;2023-03-12T16:19:14;0.30;99.90
9437;DHT22;4757;59.334;18.034;2023-03-12T16:21:57;0.30;99.90
9437;DHT22;4757;59.334;18.034;2023-03-12T16:24:29;0.20;99.90
9437;DHT22;4757;59.334;18.034;2023-03-12T16:30:40;0.10;99.90
9437;DHT22;4757;59.334;18.034;2023-03-12T16:33:25;0.00;99.90
9437;DHT22;4757;59.334;18.034;2023-03-12T16:36:16;0.00;99.90
9437;DHT22;4757;59.334;18.034;2023-03-12T16:38:52;0.00;99.90
9437;DHT22;4757;59.334;18.034;2023-03-12T16:41:32;-0.10;99.90
9437;DHT22;4757;59.334;18.034;2023-03-12T16:44:02;-0.10;99.90
9437;DHT22;4757;59.334;18.034;2023-03-12T16:46:53;-0.20;99.90
9437;DHT22;4757;59.334;18.034;2023-03-12T16:52:51;-0.20;99.90
9437;DHT22;4757;59.334;18.034;2023-03-12T16:56:02;-0.30;99.90
9437;DHT22;4757;59.334;18.034;2023-03-12T16:58:51;-0.30;99.90
9437;DHT22;4757;59.334;18.034;2023-03-12T17:01:48;-0.40;99.90
9437;DHT22;4757;59.334;18.034;2023-03-12T17:04:49;-0.40;99.90
9437;DHT22;4757;59.334;18.034;2023-03-12T17:07:34;-0.50;99.90
9437;DHT22;4757;59.334;18.034;2023-03-12T17:11:25;-0.50;99.90
9437;DHT22;4757;59.334;18.034;2023-03-12T17:14:17;-0.60;99.90
9437;DHT22;4757;59.334;18.034;2023-03-12T17:16:48;-0.70;99.90
9437;DHT22;4757;59.334;18.034;2023-03-12T17:19:37;-0.70;99.90
9437;DHT22;4757;59.334;18.034;2023-03-12T17:22:16;-0.70;99.90
9437;DHT22;4757;59.334;18.034;2023-03-12T17:24:59;-0.80;99.90
9437;DHT22;4757;59.334;18.034;2023-03-12T17:30:57;-0.80;99.90
9437;DHT22;4757;59.334;18.034;2023-03-12T17:33:34;-0.90;99.90
9437;DHT22;4757;59.334;18.034;2023-03-12T17:36:48;-0.90;99.90
9437;DHT22;4757;59.334;18.034;2023-03-12T17:39:20;-0.90;99.90
9437;DHT22;4757;59.334;18.034;2023-03-12T17:41:50;-1.00;99.90
9437;DHT22;4757;59.334;18.034;2023-03-12T17:44:31;-1.00;99.90
9437;DHT22;4757;59.334;18.034;2023-03-12T17:47:18;-1.10;99.90
9437;DHT22;4757;59.334;18.034;2023-03-12T17:49:47;-1.10;99.90
9437;DHT22;4757;59.334;18.034;2023-03-12T17:52:14;-1.10;99.90
9437;DHT22;4757;59.334;18.034;2023-03-12T17:54:41;-1.10;99.90
9437;DHT22;4757;59.334;18.034;2023-03-12T17:57:09;-1.10;99.90
9437;DHT22;4757;59.334;18.034;2023-03-12T17:59:37;-1.20;99.90
9437;DHT22;4757;59.334;18.034;2023-03-12T18:02:08;-1.20;99.90
9437;DHT22;4757;59.334;18.034;2023-03-12T18:04:36;-1.20;99.90
9437;DHT22;4757;59.334;18.034;2023-03-12T18:07:03;-1.30;99.90
9437;DHT22;4757;59.334;18.034;2023-03-12T18:09:31;-1.30;99.90
9437;DHT22;4757;59.334;18.034;2023-03-12T18:12:05;-1.30;99.90
9437;DHT22;4757;59.334;18.034;2023-03-12T18:14:33;-1.40;99.90
9437;DHT22;4757;59.334;18.034;2023-03-12T18:17:00;-1.40;99.90
9437;DHT22;4757;59.334;18.034;2023-03-12T18:19:28;-1.40;99.90
9437;DHT22;4757;59.334;18.034;2023-03-12T18:22:01;-1.50;99.90
9437;DHT22;4757;59.334;18.034;2023-03-12T18:24:42;-1.50;99.90
9437;DHT22;4757;59.334;18.034;2023-03-12T18:27:10;-1.50;99.90
9437;DHT22;4757;59.334;18.034;2023-03-12T18:29:37;-1.50;99.90
9437;DHT22;4757;59.334;18.034;2023-03-12T18:32:06;-1.60;99.90
9437;DHT22;4757;59.334;18.034;2023-03-12T18:34:33;-1.60;99.90
9437;DHT22;4757;59.334;18.034;2023-03-12T18:37:01;-1.60;99.90
9437;DHT22;4757;59.334;18.034;2023-03-12T18:39:28;-1.60;99.90
9437;DHT22;4757;59.334;18.034;2023-03-12T18:41:55;-1.70;99.90
9437;DHT22;4757;59.334;18.034;2023-03-12T18:44:22;-1.70;99.90
9437;DHT22;4757;59.334;18.034;2023-03-12T18:46:49;-1.70;99.90